createdAt,value
2023-11-25T00:02:22.270Z,79.13
2023-11-25T00:07:24.200Z,79.20
2023-11-25T00:12:23.132Z,79.34
2023-11-25T00:17:24.174Z,80.38
2023-11-25T00:22:25.246Z,78.51
2023-11-25T00:27:26.233Z,78.82
2023-11-25T00:32:27.243Z,79.44
2023-11-25T00:37:28.270Z,79.86
2023-11-25T00:42:29.406Z,80.49
2023-11-25T00:47:30.443Z,81.15
2023-11-25T00:52:31.583Z,81.77
2023-11-25T00:57:32.594Z,82.50
2023-11-25T01:02:33.753Z,84.27
2023-11-25T01:07:34.842Z,85.17
2023-11-25T01:12:35.802Z,84.03
2023-11-25T01:17:36.845Z,81.91
2023-11-25T01:22:36.873Z,85.17
2023-11-25T01:27:37.819Z,85.80
2023-11-25T01:32:38.873Z,84.86
2023-11-25T01:37:39.855Z,82.99
2023-11-25T01:42:40.753Z,81.39
2023-11-25T01:47:41.847Z,80.15
2023-11-25T01:52:43.926Z,79.27
2023-11-25T01:57:42.851Z,78.44
2023-11-25T02:02:44.208Z,78.03
2023-11-25T02:07:43.821Z,78.34
2023-11-25T02:12:42.890Z,76.85
2023-11-25T02:17:44.022Z,78.03
2023-11-25T02:22:45.036Z,80.77
2023-11-25T02:27:46.014Z,82.95
2023-11-25T02:32:45.971Z,84.55
2023-11-25T02:37:47.047Z,85.11
2023-11-25T02:42:48.010Z,82.51
2023-11-25T02:47:49.085Z,80.18
2023-11-25T02:52:50.137Z,78.48
2023-11-25T02:57:50.976Z,77.65
2023-11-25T03:02:52.005Z,76.57
2023-11-25T03:07:53.935Z,76.89
2023-11-25T03:12:52.958Z,77.40
2023-11-25T03:17:53.974Z,76.78
2023-11-25T03:22:55.926Z,76.89
2023-11-25T03:27:54.900Z,79.31
2023-11-25T03:32:56.106Z,87.58
2023-11-25T03:37:57.046Z,91.83
2023-11-25T03:42:58.049Z,94.27
2023-11-25T03:47:59.026Z,94.37
2023-11-25T03:52:59.946Z,88.70
2023-11-25T03:58:00.931Z,79.38
2023-11-25T04:03:02.077Z,79.38
2023-11-25T04:08:03.045Z,79.07
2023-11-25T04:13:04.005Z,79.55
2023-11-25T04:18:05.035Z,77.79
2023-11-25T04:23:06.022Z,78.52
2023-11-25T04:28:07.018Z,78.31
2023-11-25T04:33:08.138Z,77.06
2023-11-25T04:38:09.114Z,80.80
2023-11-25T04:43:10.136Z,85.89
2023-11-25T04:48:12.436Z,88.91
2023-11-25T04:53:11.454Z,87.87
2023-11-25T04:58:12.502Z,86.79
2023-11-25T05:03:17.340Z,89.75
2023-11-25T05:08:14.333Z,91.83
2023-11-25T05:13:17.054Z,92.50
2023-11-25T05:18:16.249Z,91.35
2023-11-25T05:23:17.221Z,90.52
2023-11-25T05:28:18.282Z,89.54
2023-11-25T05:33:19.266Z,88.18
2023-11-25T05:38:20.293Z,88.70
2023-11-25T05:43:21.304Z,87.24
2023-11-25T05:48:22.364Z,86.20
2023-11-25T05:53:23.404Z,86.72
2023-11-25T05:58:24.502Z,84.84
2023-11-25T06:03:29.471Z,83.91
2023-11-25T06:08:26.369Z,83.59
2023-11-25T06:13:27.444Z,82.31
2023-11-25T06:18:28.544Z,81.37
2023-11-25T06:23:29.545Z,81.89
2023-11-25T06:28:30.607Z,82.20
2023-11-25T06:38:32.609Z,78.24
2023-11-25T06:43:33.689Z,80.64
2023-11-25T06:48:34.617Z,78.97
2023-11-25T06:53:35.632Z,79.80
2023-11-25T06:58:36.706Z,77.62
2023-11-25T07:03:52.469Z,77.31
2023-11-25T07:08:44.515Z,76.99
2023-11-25T07:13:37.704Z,77.62
2023-11-25T07:18:38.621Z,77.83
2023-11-25T07:23:40.566Z,76.37
2023-11-25T07:28:39.521Z,72.83
2023-11-25T07:33:40.498Z,72.27
2023-11-25T07:38:41.493Z,73.83
2023-11-25T07:43:42.844Z,73.32
2023-11-25T07:48:42.810Z,70.50
2023-11-25T07:53:43.861Z,73.52
2023-11-25T07:58:44.950Z,72.48
2023-11-25T08:03:46.006Z,77.20
2023-11-25T08:08:47.016Z,78.87
2023-11-25T08:13:47.984Z,75.32
2023-11-25T08:18:48.913Z,77.72
2023-11-25T08:23:49.887Z,75.74
2023-11-25T08:28:50.037Z,77.20
2023-11-25T08:33:50.943Z,80.74
2023-11-25T08:38:51.984Z,80.68
2023-11-25T08:43:53.151Z,86.07
2023-11-25T08:48:54.193Z,90.33
2023-11-25T08:53:55.225Z,91.89
2023-11-25T08:59:06.132Z,93.29
2023-11-25T09:03:57.135Z,94.95
2023-11-25T09:08:58.128Z,96.89
2023-11-25T09:13:59.195Z,95.80
2023-11-25T09:19:00.682Z,95.28
2023-11-25T09:24:01.050Z,94.82
2023-11-25T09:29:00.172Z,93.46
2023-11-25T09:34:01.240Z,91.85
2023-11-25T09:39:03.104Z,90.62
2023-11-25T09:44:02.138Z,89.75
2023-11-25T09:49:03.187Z,86.61
2023-11-25T09:54:04.148Z,88.16
2023-11-25T09:59:05.037Z,87.76
2023-11-25T10:04:06.181Z,86.06
2023-11-25T10:09:07.222Z,87.10
2023-11-25T10:14:08.312Z,86.60
2023-11-25T10:19:09.813Z,85.65
2023-11-25T10:24:09.740Z,80.52
2023-11-25T10:29:08.760Z,83.58
2023-11-25T10:34:09.727Z,84.09
2023-11-25T10:39:10.579Z,79.35
2023-11-25T10:44:12.503Z,75.29
2023-11-25T10:49:11.500Z,80.77
2023-11-25T10:54:12.577Z,80.94
2023-11-25T10:59:13.583Z,80.52
2023-11-25T11:04:14.528Z,78.75
2023-11-25T11:09:16.365Z,79.55
2023-11-25T11:14:15.519Z,76.40
2023-11-25T11:19:16.564Z,77.75
2023-11-25T11:24:17.541Z,77.23
2023-11-25T11:29:18.586Z,77.06
2023-11-25T11:34:19.560Z,75.46
2023-11-25T11:39:20.491Z,75.05
2023-11-25T11:44:22.482Z,76.64
2023-11-25T11:49:21.499Z,75.92
2023-11-25T11:54:22.474Z,77.30
2023-11-25T11:59:23.510Z,78.41
2023-11-25T12:04:24.594Z,75.88
2023-11-25T12:09:25.676Z,74.43
2023-11-25T12:14:27.575Z,73.88
2023-11-25T12:19:26.580Z,75.23
2023-11-25T12:24:27.654Z,73.46
2023-11-25T12:29:29.012Z,75.92
2023-11-25T12:34:31.080Z,74.46
2023-11-25T12:39:30.213Z,74.63
2023-11-25T12:44:31.153Z,75.43
2023-11-25T12:49:32.148Z,73.67
2023-11-25T12:54:33.165Z,72.01
2023-11-25T12:59:34.114Z,73.28
2023-11-25T13:04:35.148Z,74.08
2023-11-25T13:09:36.108Z,71.28
2023-11-25T13:14:37.165Z,72.63
2023-11-25T13:19:38.148Z,73.70
2023-11-25T13:24:39.071Z,72.94
2023-11-25T13:29:40.000Z,68.30
2023-11-25T13:34:41.089Z,72.77
2023-11-25T13:39:42.025Z,75.46
2023-11-25T13:44:44.012Z,72.74
2023-11-25T13:49:42.070Z,71.83
2023-11-25T13:54:43.014Z,69.86
2023-11-25T13:59:44.947Z,71.94
2023-11-25T14:04:43.961Z,73.18
2023-11-25T14:09:44.912Z,69.34
2023-11-25T14:14:46.952Z,70.38
2023-11-25T14:19:46.016Z,66.22
2023-11-25T14:24:46.951Z,72.14
2023-11-25T14:29:47.875Z,72.69
2023-11-25T14:34:48.880Z,70.62
2023-11-25T14:39:55.128Z,70.93
2023-11-25T14:44:49.632Z,71.17
2023-11-25T14:49:50.718Z,70.31
2023-11-25T14:54:51.632Z,70.07
2023-11-25T14:59:52.603Z,69.34
2023-11-25T15:04:53.586Z,69.58
2023-11-25T15:09:54.566Z,70.13
2023-11-25T15:14:56.021Z,71.80
2023-11-25T15:19:55.057Z,71.38
2023-11-25T15:24:55.917Z,70.62
2023-11-25T15:29:57.910Z,71.28
2023-11-25T15:34:58.923Z,71.07
2023-11-25T15:39:58.840Z,72.42
2023-11-25T15:44:57.785Z,71.90
2023-11-25T15:49:59.819Z,72.31
2023-11-25T15:54:58.786Z,73.25
2023-11-25T15:59:59.763Z,73.77
2023-11-25T16:05:01.057Z,74.29
2023-11-25T16:10:01.963Z,75.29
2023-11-25T16:15:03.237Z,75.19
2023-11-25T16:20:04.306Z,76.72
2023-11-25T16:25:26.376Z,76.92
2023-11-25T16:30:05.442Z,76.40
2023-11-25T16:35:06.433Z,77.89
2023-11-25T16:40:08.933Z,77.69
2023-11-25T16:45:07.813Z,78.72
2023-11-25T16:50:09.151Z,78.93
2023-11-25T16:55:11.168Z,80.63
2023-11-25T17:00:10.265Z,81.63
2023-11-25T17:05:11.345Z,81.74
2023-11-25T17:10:12.311Z,83.99
2023-11-25T17:15:13.352Z,78.44
2023-11-25T17:20:14.331Z,79.83
2023-11-25T17:25:16.198Z,78.72
2023-11-25T17:30:15.266Z,78.41
2023-11-25T17:35:16.286Z,77.65
2023-11-25T17:40:17.218Z,77.58
2023-11-25T17:45:18.265Z,79.28
2023-11-25T17:50:19.291Z,80.57
2023-11-25T17:55:22.139Z,81.92
2023-11-25T18:00:21.161Z,82.03
2023-11-25T18:05:22.162Z,82.09
2023-11-25T18:10:23.236Z,82.86
2023-11-25T18:15:25.167Z,83.17
2023-11-25T18:20:24.178Z,83.80
2023-11-25T18:25:26.127Z,85.25
2023-11-25T18:30:27.035Z,87.79
2023-11-25T18:35:26.004Z,88.20
2023-11-25T18:40:27.034Z,87.99
2023-11-25T18:45:28.169Z,88.42
2023-11-25T18:50:29.264Z,88.31
2023-11-25T18:55:31.494Z,87.89
2023-11-25T19:00:30.716Z,88.42
2023-11-25T19:05:31.752Z,87.79
2023-11-25T19:10:32.716Z,89.45
2023-11-25T19:15:33.836Z,89.04
2023-11-25T19:20:34.967Z,89.87
2023-11-25T19:25:36.426Z,89.14
2023-11-25T19:30:34.441Z,87.85
2023-11-25T19:35:35.369Z,88.83
2023-11-25T19:40:36.472Z,86.15
2023-11-25T19:45:37.455Z,84.23
2023-11-25T19:50:38.446Z,88.62
2023-11-25T19:55:39.413Z,89.45
2023-11-25T20:00:49.207Z,90.19
2023-11-25T20:05:40.693Z,89.66
2023-11-25T20:10:41.797Z,86.54
2023-11-25T20:15:42.859Z,87.33
2023-11-25T20:20:44.916Z,87.12
2023-11-25T20:25:44.626Z,88.17
2023-11-25T20:30:43.997Z,81.22
2023-11-25T20:35:45.145Z,81.91
2023-11-25T20:40:48.346Z,82.95
2023-11-25T20:45:47.242Z,81.67
2023-11-25T20:50:49.598Z,80.63
2023-11-25T20:55:49.566Z,81.91
2023-11-25T21:00:48.890Z,80.00
2023-11-25T21:05:49.832Z,82.29
2023-11-25T21:10:50.934Z,80.42
2023-11-25T21:15:52.871Z,79.34
2023-11-25T21:20:51.761Z,79.69
2023-11-25T21:25:53.670Z,82.18
2023-11-25T21:30:52.555Z,81.56
2023-11-25T21:35:54.465Z,83.22
2023-11-25T21:40:53.445Z,84.16
2023-11-25T21:45:54.549Z,86.52
2023-11-25T21:50:56.538Z,85.24
2023-11-25T21:55:55.542Z,86.73
2023-11-25T22:00:56.559Z,87.46
2023-11-25T22:06:14.590Z,87.04
2023-11-25T22:10:57.482Z,85.38
2023-11-25T22:15:58.682Z,87.21
2023-11-25T22:20:59.595Z,87.32
2023-11-25T22:26:01.565Z,87.84
2023-11-25T22:31:00.517Z,87.73
2023-11-25T22:36:01.559Z,85.86
2023-11-25T22:41:02.687Z,85.72
2023-11-25T22:46:03.727Z,86.44
2023-11-25T22:51:04.607Z,85.51
2023-11-25T22:56:05.811Z,85.93
2023-11-25T23:01:06.842Z,81.84
2023-11-25T23:06:08.732Z,78.34
2023-11-25T23:11:07.684Z,80.24
2023-11-25T23:16:08.743Z,80.76
2023-11-25T23:21:09.643Z,80.87
2023-11-25T23:26:10.703Z,80.66
2023-11-25T23:31:12.809Z,80.59
2023-11-25T23:36:11.834Z,80.87
2023-11-25T23:41:13.719Z,80.76
2023-11-25T23:46:12.660Z,80.35
2023-11-25T23:51:13.582Z,80.80
2023-11-25T23:56:14.604Z,80.59
